00:42
Airports
History
Links
Donate
Help keep this website running!
PayPal
Bitcoin
This page is community maintained. The information is intended for PC simulator navigation or reference.
Always use approved charts for navigation.
EDHG
Lueneburg
Lueneburg (EDHG)
L√ľneburg, Niedersachsen, Germany (21337)
(C)
Lat/Lng:53° 14' 54" N / 10° 27' 31.2" E
53.248333 / 10.458667
Elevation:161'ft / 49mMSL
ID / ICAO:EDHG
Runways:1
Longest:09-27
Grass 982m / 3,221ft
Controlled:Yes
Nearby Weather00:20 GMT 2017-09-25
Nearby weather at ETHS, FASSBERG located 25.6 nautical miles from EDHG
Altimeter: 30.24
Visibility: 1.2 statute miles
Wind: 1 knots (from 060°)
Temp: 12°c / 54°f
Humidity: 100.0%

METAR: ETHS 250020Z 06001KT 2000 BR SCT017 BKN040 12/12 Q1024 YLO

(Powered by phpweather)
Airport Radio Frequencies
Tower: 122.17
Nearby VORs <50NM
Nearby NDBs
Runway 09 / 27
Dimensions:981.7 x 29.9m 3221' x 98'ft
Surface:Grass
Edge Lights:Low intensity
Runway 09 [A]Runway 27 [B]
Heading:073°TH 253°TH
Lat:
Lng:
53° 14' 49.36"N
10° 27' 5.83"E
53° 14' 58.64"N
10° 27' 56.57"E
User Notes and Comments
53° 14' 54" N / 10° 27' 31.2" E
Distance To
Airport ID:
Nearby Airports
(U) Uelzen 18.3 NM
EDVU S 179°
(C) FASSBERG 25.6 NM
ETHS ( WX ) SSW 206°
(C) Hamburg Finkenwerder 32.4 NM
EDHI ( WX ) NW 307°
(U) Luechow Rehbeck 32.6 NM
EDHC ESE 119°
(C) Hamburg 33.2 NM
EDDH ( WX ) NW 323°
(C) Lauenbrueck 36.7 NM
EDHU W 265°
(C) Lubeck Blankensee 39.9 NM
EDHL ( WX ) NNE 15°
VFR Chart
Flight Planning at SkyVector.com